createdAt,value
2023-04-02T00:01:02.007Z,98633.47
2023-04-02T00:04:22.551Z,98637.00
2023-04-02T00:07:33.440Z,98627.22
2023-04-02T00:10:36.933Z,98647.09
2023-04-02T00:13:44.224Z,98637.00
2023-04-02T00:16:47.372Z,98644.09
2023-04-02T00:19:58.344Z,98629.94
2023-04-02T00:23:03.315Z,98639.75
2023-04-02T00:26:31.355Z,98629.13
2023-04-02T00:29:34.446Z,98630.78
2023-04-02T00:32:37.400Z,98631.84
2023-04-02T00:35:41.414Z,98632.94
2023-04-02T00:38:46.699Z,98634.84
2023-04-02T00:41:54.772Z,98641.09
2023-04-02T00:44:58.739Z,98641.38
2023-04-02T00:48:21.201Z,98628.03
2023-04-02T00:51:36.038Z,98638.66
2023-04-02T00:54:45.378Z,98631.84
2023-04-02T00:57:50.007Z,98623.41
2023-04-02T01:00:54.124Z,98626.97
2023-04-02T01:04:02.470Z,98616.06
2023-04-02T01:07:09.721Z,98618.50
2023-04-02T01:10:58.239Z,98597.25
2023-04-02T01:14:01.280Z,98593.47
2023-04-02T01:17:43.022Z,98593.19
2023-04-02T01:21:01.922Z,98592.66
2023-04-02T01:24:07.839Z,98589.09
2023-04-02T01:27:21.550Z,98592.34
2023-04-02T01:30:25.218Z,98594.53
2023-04-02T01:33:34.585Z,98581.75
2023-04-02T01:36:53.701Z,98576.56
2023-04-02T01:40:26.905Z,98581.47
2023-04-02T01:43:37.336Z,98596.75
2023-04-02T01:46:43.159Z,98609.53
2023-04-02T01:49:47.346Z,98614.13
2023-04-02T01:52:54.182Z,98609.00
2023-04-02T01:56:00.326Z,98620.16
2023-04-02T01:59:06.043Z,98625.06
2023-04-02T02:02:14.115Z,98611.41
2023-04-02T02:05:21.010Z,98623.69
2023-04-02T02:08:29.317Z,98619.88
2023-04-02T02:11:34.047Z,98614.69
2023-04-02T02:14:36.647Z,98617.94
2023-04-02T02:17:40.440Z,98616.59
2023-04-02T02:20:43.673Z,98613.87
2023-04-02T02:23:46.979Z,98616.59
2023-04-02T02:27:03.871Z,98619.84
2023-04-02T02:30:34.967Z,98621.22
2023-04-02T02:33:51.118Z,98624.47
2023-04-02T02:37:05.002Z,98626.41
2023-04-02T02:40:23.975Z,98638.09
2023-04-02T02:43:27.283Z,98624.47
2023-04-02T02:46:34.206Z,98647.62
2023-04-02T02:49:43.554Z,98633.72
2023-04-02T02:52:52.362Z,98645.44
2023-04-02T02:56:00.474Z,98648.97
2023-04-02T02:59:07.640Z,98656.84
2023-04-02T03:02:11.489Z,98648.69
2023-04-02T03:05:21.219Z,98654.38
2023-04-02T03:09:06.957Z,98659.28
2023-04-02T03:12:28.145Z,98656.31
2023-04-02T03:15:42.732Z,98650.09
2023-04-02T03:18:57.949Z,98648.72
2023-04-02T03:22:32.289Z,98643.00
2023-04-02T03:25:50.542Z,98614.41
2023-04-02T03:29:03.041Z,98637.00
2023-04-02T03:32:15.920Z,98640.28
2023-04-02T03:35:25.053Z,98607.88
2023-04-02T03:38:44.892Z,98643.28
2023-04-02T03:42:02.876Z,98628.59
2023-04-02T03:45:15.487Z,98641.38
2023-04-02T03:48:34.719Z,98647.38
2023-04-02T03:51:47.107Z,98646.00
2023-04-02T03:54:53.516Z,98654.69
2023-04-02T03:58:01.912Z,98651.72
2023-04-02T04:01:13.423Z,98657.16
2023-04-02T04:04:19.562Z,98651.16
2023-04-02T04:07:32.625Z,98655.53
2023-04-02T04:10:36.315Z,98644.37
2023-04-02T04:13:49.747Z,98655.53
2023-04-02T04:17:01.977Z,98661.25
2023-04-02T04:20:29.799Z,98669.94
2023-04-02T04:23:41.047Z,98660.16
2023-04-02T04:27:04.006Z,98668.31
2023-04-02T04:30:27.329Z,98659.34
2023-04-02T04:33:41.424Z,98686.03
2023-04-02T04:36:54.833Z,98690.66
2023-04-02T04:40:11.345Z,98695.56
2023-04-02T04:43:39.463Z,98701.00
2023-04-02T04:46:54.220Z,98705.66
2023-04-02T04:50:04.964Z,98706.72
2023-04-02T04:53:21.251Z,98707.00
2023-04-02T04:56:28.566Z,98714.09
2023-04-02T04:59:40.673Z,98707.81
2023-04-02T05:02:52.604Z,98707.03
2023-04-02T05:06:03.013Z,98709.47
2023-04-02T05:09:28.835Z,98719.28
2023-04-02T05:12:36.608Z,98717.09
2023-04-02T05:16:01.940Z,98722.56
2023-04-02T05:19:24.128Z,98727.44
2023-04-02T05:22:43.783Z,98734.53
2023-04-02T05:26:16.519Z,98742.69
2023-04-02T05:29:33.382Z,98753.59
2023-04-02T05:32:42.018Z,98747.88
2023-04-02T05:35:49.645Z,98746.78
2023-04-02T05:38:54.553Z,98753.31
2023-04-02T05:42:14.647Z,98753.84
2023-04-02T05:45:32.186Z,98752.22
2023-04-02T05:48:43.882Z,98754.38
2023-04-02T05:51:51.384Z,98756.03
2023-04-02T05:55:18.537Z,98761.16
2023-04-02T05:58:46.695Z,98760.38
2023-04-02T06:02:17.475Z,98768.25
2023-04-02T06:05:29.039Z,98764.97
2023-04-02T06:08:39.595Z,98775.28
2023-04-02T06:11:48.983Z,98773.13
2023-04-02T06:14:52.940Z,98779.63
2023-04-02T06:18:09.663Z,98778.50
2023-04-02T06:21:17.650Z,98785.94
2023-04-02T06:24:26.201Z,98794.63
2023-04-02T06:27:29.509Z,98798.34
2023-04-02T06:30:36.523Z,98801.53
2023-04-02T06:33:40.265Z,98803.03
2023-04-02T06:36:45.461Z,98808.59
2023-04-02T06:39:52.963Z,98789.69
2023-04-02T06:42:59.921Z,98802.25
2023-04-02T06:46:11.261Z,98812.84
2023-04-02T06:49:40.494Z,98818.38
2023-04-02T06:52:51.702Z,98819.16
2023-04-02T06:56:05.606Z,98822.13
2023-04-02T06:59:09.627Z,98830.72
2023-04-02T07:02:27.144Z,98824.97
2023-04-02T07:05:30.049Z,98836.88
2023-04-02T07:08:33.180Z,98837.25
2023-04-02T07:11:36.404Z,98835.34
2023-04-02T07:14:39.889Z,98845.25
2023-04-02T07:17:43.655Z,98846.44
2023-04-02T07:20:46.991Z,98832.41
2023-04-02T07:23:50.561Z,98841.34
2023-04-02T07:26:53.547Z,98840.03
2023-04-02T07:29:56.231Z,98853.66
2023-04-02T07:32:59.399Z,98854.25
2023-04-02T07:36:02.324Z,98849.84
2023-04-02T07:39:05.679Z,98850.47
2023-04-02T07:42:08.780Z,98855.56
2023-04-02T07:45:12.141Z,98856.84
2023-04-02T07:48:15.243Z,98862.59
2023-04-02T07:51:21.741Z,98861.53
2023-04-02T07:54:24.476Z,98860.97
2023-04-02T07:57:27.833Z,98866.94
2023-04-02T08:00:30.583Z,98869.97
2023-04-02T08:03:33.665Z,98871.34
2023-04-02T08:06:36.419Z,98875.97
2023-04-02T08:09:39.393Z,98874.53
2023-04-02T08:12:42.157Z,98878.41
2023-04-02T08:15:45.762Z,98878.59
2023-04-02T08:18:48.537Z,98887.09
2023-04-02T08:21:52.002Z,98888.94
2023-04-02T08:24:55.089Z,98889.09
2023-04-02T08:27:58.174Z,98895.94
2023-04-02T08:31:01.517Z,98894.75
2023-04-02T08:34:04.698Z,98892.06
2023-04-02T08:37:08.859Z,98896.97
2023-04-02T08:40:45.604Z,98901.88
2023-04-02T08:43:57.959Z,98906.28
2023-04-02T08:47:05.495Z,98898.28
2023-04-02T08:50:30.273Z,98902.03
2023-04-02T08:53:37.572Z,98903.69
2023-04-02T08:56:51.990Z,98894.13
2023-04-02T09:00:06.296Z,98903.19
2023-04-02T09:03:17.672Z,98900.72
2023-04-02T09:06:21.782Z,98894.34
2023-04-02T09:09:25.496Z,98893.63
2023-04-02T09:12:31.916Z,98903.63
2023-04-02T09:15:36.579Z,98901.63
2023-04-02T09:18:40.613Z,98906.38
2023-04-02T09:21:48.640Z,98912.22
2023-04-02T09:25:00.544Z,98903.53
2023-04-02T09:28:05.092Z,98914.94
2023-04-02T09:31:26.923Z,98898.69
2023-04-02T09:34:34.920Z,98920.16
2023-04-02T09:37:38.436Z,98904.63
2023-04-02T09:41:01.545Z,98919.94
2023-04-02T09:44:26.646Z,98917.28
2023-04-02T09:47:32.254Z,98924.31
2023-04-02T09:50:35.552Z,98919.94
2023-04-02T09:53:46.728Z,98928.34
2023-04-02T09:57:01.541Z,98932.84
2023-04-02T10:00:31.354Z,98923.59
2023-04-02T10:03:37.894Z,98932.28
2023-04-02T10:06:49.924Z,98929.50
2023-04-02T10:10:01.242Z,98941.44
2023-04-02T10:13:19.319Z,98940.56
2023-04-02T10:16:34.971Z,98944.50
2023-04-02T10:19:42.052Z,98937.06
2023-04-02T10:22:46.427Z,98943.75
2023-04-02T10:26:29.236Z,98928.44
2023-04-02T10:29:49.529Z,98939.53
2023-04-02T10:33:05.820Z,98945.00
2023-04-02T10:36:10.910Z,98921.13
2023-04-02T10:39:20.413Z,98933.78
2023-04-02T10:42:53.174Z,98938.66
2023-04-02T10:46:01.664Z,98942.22
2023-04-02T10:49:19.786Z,98950.97
2023-04-02T10:52:41.372Z,98941.78
2023-04-02T10:55:48.820Z,98934.13
2023-04-02T10:58:57.687Z,98947.19
2023-04-02T11:02:04.239Z,98943.06
2023-04-02T11:05:15.904Z,98941.53
2023-04-02T11:08:28.494Z,98944.28
2023-04-02T11:11:38.916Z,98946.81
2023-04-02T11:14:42.027Z,98956.41
2023-04-02T11:17:45.914Z,98946.25
2023-04-02T11:20:48.914Z,98940.06
2023-04-02T11:24:03.079Z,98941.94
2023-04-02T11:27:11.959Z,98948.38
2023-04-02T11:30:26.031Z,98944.75
2023-04-02T11:33:38.152Z,98935.97
2023-04-02T11:36:50.864Z,98936.88
2023-04-02T11:39:56.945Z,98939.53
2023-04-02T11:43:35.308Z,98941.78
2023-04-02T11:46:42.888Z,98949.00
2023-04-02T11:49:54.855Z,98925.63
2023-04-02T11:53:03.715Z,98934.75
2023-04-02T11:56:08.031Z,98926.97
2023-04-02T11:59:14.315Z,98928.16
2023-04-02T12:02:28.788Z,98938.59
2023-04-02T12:05:47.657Z,98944.31
2023-04-02T12:09:06.018Z,98933.75
2023-04-02T12:12:25.557Z,98943.66
2023-04-02T12:15:45.265Z,98945.03
2023-04-02T12:18:54.041Z,98934.31
2023-04-02T12:21:59.437Z,98937.91
2023-04-02T12:25:23.606Z,98939.16
2023-04-02T12:28:33.941Z,98935.28
2023-04-02T12:31:42.305Z,98928.75
2023-04-02T12:34:46.485Z,98917.13
2023-04-02T12:37:53.711Z,98931.56
2023-04-02T12:41:19.095Z,98917.84
2023-04-02T12:44:24.894Z,98924.06
2023-04-02T12:47:28.300Z,98932.47
2023-04-02T12:50:34.128Z,98930.94
2023-04-02T12:53:40.442Z,98921.81
2023-04-02T12:56:44.621Z,98936.56
2023-04-02T12:59:48.026Z,98938.44
2023-04-02T13:03:01.778Z,98932.72
2023-04-02T13:06:17.726Z,98927.94
2023-04-02T13:09:33.785Z,98933.63
2023-04-02T13:12:39.020Z,98929.13
2023-04-02T13:15:43.704Z,98926.66
2023-04-02T13:18:48.651Z,98930.81
2023-04-02T13:21:53.154Z,98935.00
2023-04-02T13:24:56.341Z,98927.94
2023-04-02T13:27:59.489Z,98931.47
2023-04-02T13:31:02.326Z,98930.88
2023-04-02T13:34:05.290Z,98919.47
2023-04-02T13:37:12.306Z,98921.25
2023-04-02T13:40:16.912Z,98937.78
2023-04-02T13:43:20.952Z,98929.72
2023-04-02T13:46:26.560Z,98924.38
2023-04-02T13:49:29.891Z,98934.75
2023-04-02T13:52:32.881Z,98936.19
2023-04-02T13:55:39.857Z,98936.34
2023-04-02T13:58:42.846Z,98925.56
2023-04-02T14:01:47.238Z,98925.09
2023-04-02T14:05:11.530Z,98944.28
2023-04-02T14:08:38.685Z,98945.38
2023-04-02T14:12:03.675Z,98933.03
2023-04-02T14:15:27.819Z,98942.56
2023-04-02T14:18:48.746Z,98946.63
2023-04-02T14:22:11.603Z,98933.69
2023-04-02T14:25:33.090Z,98937.72
2023-04-02T14:28:49.170Z,98939.53
2023-04-02T14:32:09.932Z,98940.28
2023-04-02T14:35:29.803Z,98933.87
2023-04-02T14:38:43.700Z,98941.37
2023-04-02T14:41:49.399Z,98944.78
2023-04-02T14:45:02.742Z,98934.09
2023-04-02T14:48:18.557Z,98939.78
2023-04-02T14:51:58.146Z,98935.53
2023-04-02T14:55:07.243Z,98942.41
2023-04-02T14:58:19.043Z,98935.25
2023-04-02T15:01:27.806Z,98936.78
2023-04-02T15:04:51.005Z,98938.78
2023-04-02T15:08:07.471Z,98946.72
2023-04-02T15:11:19.472Z,98945.38
2023-04-02T15:14:48.371Z,98943.22
2023-04-02T15:17:51.296Z,98950.00
2023-04-02T15:21:06.498Z,98950.44
2023-04-02T15:24:31.133Z,98943.41
2023-04-02T15:27:57.188Z,98947.59
2023-04-02T15:31:07.339Z,98942.09
2023-04-02T15:34:35.486Z,98939.19
2023-04-02T15:37:44.211Z,98951.63
2023-04-02T15:41:15.431Z,98958.28
2023-04-02T15:44:18.388Z,98952.62
2023-04-02T15:47:42.328Z,98961.62
2023-04-02T15:51:10.582Z,98964.94
2023-04-02T15:54:27.011Z,98975.38
2023-04-02T15:57:53.268Z,98983.31
2023-04-02T16:01:23.984Z,98979.31
2023-04-02T16:05:05.361Z,98981.38
2023-04-02T16:08:17.007Z,98990.19
2023-04-02T16:11:21.113Z,98988.03
2023-04-02T16:14:31.537Z,98996.25
2023-04-02T16:17:40.896Z,99001.44
2023-04-02T16:20:51.146Z,98988.84
2023-04-02T16:23:54.206Z,99006.84
2023-04-02T16:26:57.284Z,98993.94
2023-04-02T16:30:31.038Z,99014.94
2023-04-02T16:33:59.715Z,99028.94
2023-04-02T16:37:27.012Z,99034.22
2023-04-02T16:41:07.112Z,99029.09
2023-04-02T16:44:24.333Z,99029.91
2023-04-02T16:47:44.186Z,99044.94
2023-04-02T16:51:06.932Z,99055.28
2023-04-02T16:54:17.275Z,99039.19
2023-04-02T16:57:42.117Z,99067.84
2023-04-02T17:00:51.690Z,99066.69
2023-04-02T17:04:10.093Z,99084.69
2023-04-02T17:07:29.334Z,99084.41
2023-04-02T17:10:46.889Z,99089.56
2023-04-02T17:14:16.271Z,99079.72
2023-04-02T17:17:21.328Z,99098.00
2023-04-02T17:20:25.960Z,99105.31
2023-04-02T17:23:31.852Z,99097.69
2023-04-02T17:26:37.925Z,99096.56
2023-04-02T17:29:44.725Z,99109.81
2023-04-02T17:32:47.475Z,99107.56
2023-04-02T17:36:32.891Z,99116.25
2023-04-02T17:39:53.476Z,99120.22
2023-04-02T17:43:12.558Z,99139.47
2023-04-02T17:46:37.880Z,99137.41
2023-04-02T17:49:55.720Z,99140.50
2023-04-02T17:53:19.319Z,99173.09
2023-04-02T17:57:04.877Z,99159.28
2023-04-02T18:00:31.692Z,99159.28
2023-04-02T18:04:12.787Z,99183.88
2023-04-02T18:07:47.209Z,99185.97
2023-04-02T18:11:02.114Z,99194.00
2023-04-02T18:14:23.429Z,99192.13
2023-04-02T18:17:41.461Z,99190.88
2023-04-02T18:20:53.107Z,99201.84
2023-04-02T18:24:13.938Z,99220.28
2023-04-02T18:27:53.416Z,99211.78
2023-04-02T18:31:03.830Z,99222.16
2023-04-02T18:34:25.099Z,99227.31
2023-04-02T18:37:45.868Z,99230.56
2023-04-02T18:41:18.669Z,99225.78
2023-04-02T18:44:28.658Z,99239.13
2023-04-02T18:47:46.544Z,99243.94
2023-04-02T18:50:49.985Z,99244.41
2023-04-02T18:54:15.854Z,99241.19
2023-04-02T18:57:27.325Z,99236.50
2023-04-02T19:00:34.519Z,99241.47
2023-04-02T19:03:50.365Z,99218.84
2023-04-02T19:07:05.887Z,99248.28
2023-04-02T19:10:31.854Z,99236.63
2023-04-02T19:13:34.545Z,99268.28
2023-04-02T19:17:01.443Z,99270.37
2023-04-02T19:20:04.062Z,99265.31
2023-04-02T19:23:14.141Z,99293.44
2023-04-02T19:26:24.219Z,99299.56
2023-04-02T19:29:55.863Z,99319.41
2023-04-02T19:33:07.660Z,99324.47
2023-04-02T19:36:41.654Z,99328.69
2023-04-02T19:39:56.430Z,99334.56
2023-04-02T19:42:59.685Z,99334.41
2023-04-02T19:46:03.182Z,99352.53
2023-04-02T19:49:11.198Z,99366.50
2023-04-02T19:52:13.961Z,99356.69
2023-04-02T19:55:17.056Z,99375.84
2023-04-02T19:58:32.869Z,99369.84
2023-04-02T20:01:36.166Z,99389.91
2023-04-02T20:04:39.363Z,99389.53
2023-04-02T20:07:42.413Z,99385.50
2023-04-02T20:10:45.803Z,99392.16
2023-04-02T20:13:50.179Z,99403.44
2023-04-02T20:16:53.218Z,99404.53
2023-04-02T20:19:57.148Z,99393.13
2023-04-02T20:23:00.663Z,99408.38
2023-04-02T20:26:04.217Z,99414.37
2023-04-02T20:29:07.187Z,99399.78
2023-04-02T20:32:10.971Z,99413.38
2023-04-02T20:35:14.019Z,99401.81
2023-04-02T20:38:17.656Z,99419.47
2023-04-02T20:41:21.946Z,99423.22
2023-04-02T20:44:25.179Z,99427.13
2023-04-02T20:47:28.142Z,99432.16
2023-04-02T20:50:31.349Z,99428.00
2023-04-02T20:53:36.477Z,99423.88
2023-04-02T20:56:39.768Z,99426.19
2023-04-02T20:59:42.782Z,99435.16
2023-04-02T21:02:45.523Z,99422.06
2023-04-02T21:05:48.588Z,99407.41
2023-04-02T21:08:51.894Z,99406.28
2023-04-02T21:11:54.932Z,99411.53
2023-04-02T21:15:00.359Z,99407.25
2023-04-02T21:18:06.070Z,99411.53
2023-04-02T21:21:13.336Z,99395.16
2023-04-02T21:24:16.259Z,99393.13
2023-04-02T21:27:18.936Z,99396.88
2023-04-02T21:30:21.917Z,99372.78
2023-04-02T21:33:24.745Z,99380.06
2023-04-02T21:36:33.232Z,99378.06
2023-04-02T21:39:36.297Z,99399.25
2023-04-02T21:42:39.224Z,99389.34
2023-04-02T21:45:41.857Z,99394.34
2023-04-02T21:48:45.217Z,99376.72
2023-04-02T21:51:49.106Z,99385.03
2023-04-02T21:54:52.171Z,99386.72
2023-04-02T21:57:54.835Z,99394.81
2023-04-02T22:00:59.065Z,99389.94
2023-04-02T22:04:05.187Z,99387.44
2023-04-02T22:07:07.960Z,99390.13
2023-04-02T22:10:11.473Z,99396.47
2023-04-02T22:13:14.180Z,99394.28
2023-04-02T22:16:19.996Z,99410.25
2023-04-02T22:19:22.795Z,99383.25
2023-04-02T22:22:25.864Z,99412.34
2023-04-02T22:25:28.486Z,99408.63
2023-04-02T22:28:32.021Z,99376.25
2023-04-02T22:31:35.464Z,99407.37
2023-04-02T22:34:45.521Z,99397.53
2023-04-02T22:37:48.182Z,99382.81
2023-04-02T22:40:51.283Z,99402.38
2023-04-02T22:43:57.245Z,99397.44
2023-04-02T22:47:00.372Z,99400.75
2023-04-02T22:50:03.218Z,99382.72
2023-04-02T22:53:06.390Z,99377.59
2023-04-02T22:56:22.065Z,99395.44
2023-04-02T22:59:25.721Z,99411.19
2023-04-02T23:02:28.728Z,99410.22
2023-04-02T23:05:31.840Z,99418.69
2023-04-02T23:08:38.434Z,99426.84
2023-04-02T23:11:41.498Z,99423.31
2023-04-02T23:14:44.265Z,99429.94
2023-04-02T23:17:47.283Z,99428.91
2023-04-02T23:20:49.968Z,99440.31
2023-04-02T23:23:53.643Z,99444.06
2023-04-02T23:26:56.342Z,99465.03
2023-04-02T23:29:59.447Z,99457.16
2023-04-02T23:33:03.603Z,99426.34
2023-04-02T23:36:24.924Z,99454.25
2023-04-02T23:39:27.553Z,99455.06
2023-04-02T23:42:30.509Z,99454.88
2023-04-02T23:45:33.136Z,99447.78
2023-04-02T23:48:36.235Z,99447.59
2023-04-02T23:51:39.377Z,99462.06
2023-04-02T23:54:42.401Z,99450.63
2023-04-02T23:57:45.082Z,99453.72
